createdAt,value
2023-05-05T00:00:23.132Z,12.20
2023-05-05T00:02:50.457Z,12.20
2023-05-05T00:05:17.792Z,12.20
2023-05-05T00:07:45.075Z,12.20
2023-05-05T00:10:12.410Z,12.20
2023-05-05T00:12:39.732Z,12.20
2023-05-05T00:15:07.644Z,12.30
2023-05-05T00:17:34.969Z,12.20
2023-05-05T00:20:02.383Z,12.20
2023-05-05T00:22:29.728Z,12.20
2023-05-05T00:24:57.146Z,12.20
2023-05-05T00:27:24.742Z,12.20
2023-05-05T00:29:52.095Z,12.20
2023-05-05T00:32:19.384Z,12.20
2023-05-05T00:34:47.049Z,12.20
2023-05-05T00:37:14.387Z,12.10
2023-05-05T00:39:41.996Z,12.10
2023-05-05T00:42:09.638Z,12.10
2023-05-05T00:44:41.961Z,12.10
2023-05-05T00:47:10.170Z,12.10
2023-05-05T00:49:38.373Z,12.00
2023-05-05T00:52:07.839Z,12.00
2023-05-05T00:54:36.312Z,11.90
2023-05-05T00:57:04.359Z,11.90
2023-05-05T00:59:33.850Z,11.90
2023-05-05T01:02:01.847Z,11.80
2023-05-05T01:04:29.337Z,11.90
2023-05-05T01:07:09.232Z,11.90
2023-05-05T01:09:42.513Z,11.90
2023-05-05T01:12:15.746Z,11.90
2023-05-05T01:14:56.934Z,11.90
2023-05-05T01:17:34.778Z,11.90
2023-05-05T01:20:29.964Z,11.80
2023-05-05T01:23:06.068Z,11.80
2023-05-05T01:26:08.900Z,11.80
2023-05-05T01:29:06.583Z,11.70
2023-05-05T01:31:53.798Z,11.70
2023-05-05T01:34:29.309Z,11.70
2023-05-05T01:37:20.930Z,11.60
2023-05-05T01:39:54.631Z,11.60
2023-05-05T01:42:25.400Z,11.60
2023-05-05T01:44:56.878Z,11.60
2023-05-05T01:47:25.601Z,11.60
2023-05-05T01:49:53.602Z,11.60
2023-05-05T01:52:22.292Z,11.60
2023-05-05T01:54:52.790Z,11.60
2023-05-05T01:57:23.020Z,11.60
2023-05-05T01:59:53.335Z,11.60
2023-05-05T02:02:22.457Z,11.60
2023-05-05T02:04:51.359Z,11.60
2023-05-05T02:07:20.138Z,11.60
2023-05-05T02:09:48.895Z,11.60
2023-05-05T02:12:18.391Z,11.50
2023-05-05T02:14:47.642Z,11.50
2023-05-05T02:17:16.368Z,11.50
2023-05-05T02:19:45.948Z,11.50
2023-05-05T02:22:15.899Z,11.50
2023-05-05T02:24:44.549Z,11.50
2023-05-05T02:27:13.661Z,11.50
2023-05-05T02:29:54.176Z,11.50
2023-05-05T02:32:29.346Z,11.50
2023-05-05T02:35:00.827Z,11.50
2023-05-05T02:37:30.118Z,11.50
2023-05-05T02:40:05.580Z,11.50
2023-05-05T02:42:43.359Z,11.50
2023-05-05T02:45:18.722Z,11.60
2023-05-05T02:47:49.135Z,11.70
2023-05-05T02:50:17.112Z,11.70
2023-05-05T02:53:05.256Z,11.60
2023-05-05T02:55:39.853Z,11.70
2023-05-05T02:58:14.197Z,11.70
2023-05-05T03:00:47.936Z,11.70
2023-05-05T03:03:39.412Z,11.60
2023-05-05T03:06:19.229Z,11.60
2023-05-05T03:08:52.781Z,11.60
2023-05-05T03:11:37.142Z,11.60
2023-05-05T03:14:12.476Z,11.50
2023-05-05T03:16:43.704Z,11.60
2023-05-05T03:19:13.825Z,11.60
2023-05-05T03:21:42.580Z,11.60
2023-05-05T03:24:17.938Z,11.50
2023-05-05T03:26:51.556Z,11.50
2023-05-05T03:29:22.188Z,11.50
2023-05-05T03:31:49.797Z,11.40
2023-05-05T03:34:17.525Z,11.40
2023-05-05T03:36:47.395Z,11.30
2023-05-05T03:39:16.566Z,11.30
2023-05-05T03:41:43.864Z,11.20
2023-05-05T03:44:12.778Z,11.20
2023-05-05T03:46:40.049Z,11.20
2023-05-05T03:49:11.355Z,11.20
2023-05-05T03:51:40.571Z,11.20
2023-05-05T03:54:08.149Z,11.20
2023-05-05T03:56:36.684Z,11.20
2023-05-05T03:59:04.970Z,11.10
2023-05-05T04:01:32.515Z,11.10
2023-05-05T04:04:00.529Z,11.20
2023-05-05T04:06:28.062Z,11.20
2023-05-05T04:08:55.410Z,11.20
2023-05-05T04:11:22.810Z,11.20
2023-05-05T04:13:50.774Z,11.20
2023-05-05T04:16:20.262Z,11.30
2023-05-05T04:18:47.792Z,11.30
2023-05-05T04:21:15.103Z,11.40
2023-05-05T04:23:42.415Z,11.50
2023-05-05T04:26:10.085Z,11.70
2023-05-05T04:28:37.431Z,11.70
2023-05-05T04:31:05.372Z,11.80
2023-05-05T04:33:36.375Z,11.90
2023-05-05T04:36:04.336Z,12.00
2023-05-05T04:38:31.761Z,12.10
2023-05-05T04:41:00.138Z,12.10
2023-05-05T04:43:28.565Z,12.20
2023-05-05T04:45:56.642Z,12.20
2023-05-05T04:48:27.912Z,12.20
2023-05-05T04:50:55.551Z,12.30
2023-05-05T04:53:23.174Z,12.30
2023-05-05T04:55:50.730Z,12.40
2023-05-05T04:58:18.921Z,12.60
2023-05-05T05:00:46.712Z,12.70
2023-05-05T05:03:14.043Z,12.80
2023-05-05T05:05:41.356Z,13.00
2023-05-05T05:08:08.916Z,13.20
2023-05-05T05:10:36.715Z,13.40
2023-05-05T05:13:04.131Z,13.50
2023-05-05T05:15:31.480Z,13.60
2023-05-05T05:17:58.868Z,13.70
2023-05-05T05:20:26.417Z,13.80
2023-05-05T05:22:53.854Z,14.00
2023-05-05T05:25:25.056Z,14.20
2023-05-05T05:28:06.201Z,14.30
2023-05-05T05:30:40.007Z,14.30
2023-05-05T05:33:09.744Z,14.60
2023-05-05T05:35:37.266Z,14.70
2023-05-05T05:38:04.755Z,14.70
2023-05-05T05:40:32.380Z,14.70
2023-05-05T05:43:00.547Z,14.80
2023-05-05T05:45:28.725Z,14.80
2023-05-05T05:47:56.541Z,14.80
2023-05-05T05:50:27.208Z,14.70
2023-05-05T05:52:55.584Z,14.50
2023-05-05T05:55:24.123Z,14.50
2023-05-05T05:57:52.142Z,14.50
2023-05-05T06:00:20.921Z,14.50
2023-05-05T06:02:55.104Z,14.60
2023-05-05T06:05:25.903Z,14.60
2023-05-05T06:07:54.057Z,14.80
2023-05-05T06:10:27.770Z,15.00
2023-05-05T06:13:05.173Z,15.20
2023-05-05T06:15:34.297Z,15.40
2023-05-05T06:18:03.482Z,15.60
2023-05-05T06:20:31.366Z,15.70
2023-05-05T06:22:58.700Z,15.90
2023-05-05T06:25:27.955Z,16.00
2023-05-05T06:27:55.303Z,16.00
2023-05-05T06:30:22.696Z,16.10
2023-05-05T06:32:50.170Z,16.10
2023-05-05T06:35:17.705Z,16.10
2023-05-05T06:37:44.940Z,15.80
2023-05-05T06:40:13.008Z,15.80
2023-05-05T06:42:40.474Z,15.80
2023-05-05T06:45:10.809Z,15.80
2023-05-05T06:47:38.461Z,16.00
2023-05-05T06:50:07.328Z,16.20
2023-05-05T06:52:34.879Z,16.20
2023-05-05T06:55:02.323Z,16.20
2023-05-05T06:57:30.039Z,16.40
2023-05-05T06:59:57.409Z,16.40
2023-05-05T07:02:26.661Z,16.50
2023-05-05T07:04:55.860Z,16.50
2023-05-05T07:07:23.112Z,16.60
2023-05-05T07:09:53.025Z,16.80
2023-05-05T07:12:20.294Z,16.80
2023-05-05T07:14:47.746Z,16.90
2023-05-05T07:17:15.159Z,17.10
2023-05-05T07:19:43.250Z,17.20
2023-05-05T07:22:10.729Z,17.20
2023-05-05T07:24:38.121Z,17.20
2023-05-05T07:27:06.594Z,17.40
2023-05-05T07:29:33.905Z,17.50
2023-05-05T07:32:02.231Z,17.70
2023-05-05T07:34:30.061Z,17.80
2023-05-05T07:36:57.412Z,18.00
2023-05-05T07:39:24.703Z,18.10
2023-05-05T07:41:52.569Z,18.10
2023-05-05T07:44:20.231Z,17.90
2023-05-05T07:46:50.494Z,18.00
2023-05-05T07:49:17.842Z,18.10
2023-05-05T07:51:45.166Z,18.10
2023-05-05T07:54:12.875Z,18.30
2023-05-05T07:56:40.298Z,18.30
2023-05-05T07:59:07.681Z,18.40
2023-05-05T08:01:34.939Z,18.40
2023-05-05T08:04:02.279Z,18.50
2023-05-05T08:06:31.771Z,18.40
2023-05-05T08:09:02.056Z,18.30
2023-05-05T08:11:29.720Z,18.40
2023-05-05T08:13:57.050Z,18.50
2023-05-05T08:16:25.349Z,18.60
2023-05-05T08:18:52.766Z,18.50
2023-05-05T08:21:20.213Z,18.70
2023-05-05T08:23:47.469Z,18.90
2023-05-05T08:26:14.807Z,18.80
2023-05-05T08:28:42.169Z,19.00
2023-05-05T08:31:09.628Z,19.20
2023-05-05T08:33:36.925Z,19.30
2023-05-05T08:36:05.910Z,19.20
2023-05-05T08:38:33.270Z,19.20
2023-05-05T08:41:00.508Z,19.30
2023-05-05T08:43:27.767Z,19.20
2023-05-05T08:45:56.616Z,19.50
2023-05-05T08:48:28.527Z,19.70
2023-05-05T08:51:02.587Z,19.70
2023-05-05T08:53:40.219Z,19.70
2023-05-05T08:56:08.408Z,19.70
2023-05-05T08:58:37.737Z,19.90
2023-05-05T09:01:06.606Z,19.90
2023-05-05T09:03:35.517Z,19.90
2023-05-05T09:06:02.895Z,19.90
2023-05-05T09:08:31.028Z,20.10
2023-05-05T09:10:58.327Z,20.10
2023-05-05T09:13:25.702Z,20.20
2023-05-05T09:15:53.067Z,20.30
2023-05-05T09:18:20.361Z,20.50
2023-05-05T09:20:47.879Z,20.40
2023-05-05T09:23:17.184Z,20.70
2023-05-05T09:25:47.028Z,21.10
2023-05-05T09:28:16.590Z,21.40
2023-05-05T09:30:46.043Z,21.30
2023-05-05T09:33:14.096Z,21.50
2023-05-05T09:35:55.311Z,21.90
2023-05-05T09:38:24.920Z,22.10
2023-05-05T09:40:53.741Z,22.50
2023-05-05T09:43:23.412Z,22.60
2023-05-05T09:45:51.384Z,22.60
2023-05-05T09:48:29.755Z,22.90
2023-05-05T09:50:59.200Z,23.20
2023-05-05T09:53:27.243Z,23.40
2023-05-05T09:55:59.730Z,23.20
2023-05-05T09:58:31.639Z,23.40
2023-05-05T10:00:59.678Z,23.40
2023-05-05T10:03:26.963Z,23.30
2023-05-05T10:05:59.174Z,23.60
2023-05-05T10:08:32.405Z,23.70
2023-05-05T10:11:06.606Z,24.10
2023-05-05T10:13:37.686Z,24.20
2023-05-05T10:16:09.302Z,24.10
2023-05-05T10:18:40.415Z,24.40
2023-05-05T10:21:09.438Z,24.80
2023-05-05T10:23:41.933Z,24.60
2023-05-05T10:26:13.742Z,24.90
2023-05-05T10:29:01.611Z,25.50
2023-05-05T10:31:49.287Z,25.80
2023-05-05T10:34:25.093Z,26.10
2023-05-05T10:36:53.835Z,26.00
2023-05-05T10:39:22.947Z,26.30
2023-05-05T10:41:52.288Z,26.10
2023-05-05T10:44:20.074Z,26.30
2023-05-05T10:46:47.945Z,26.40
2023-05-05T10:49:24.989Z,26.30
2023-05-05T10:52:26.355Z,26.70
2023-05-05T10:55:03.878Z,27.00
2023-05-05T10:57:36.228Z,27.70
2023-05-05T11:00:06.142Z,27.50
2023-05-05T11:02:36.207Z,27.70
2023-05-05T11:05:18.607Z,28.10
2023-05-05T11:07:47.402Z,28.30
2023-05-05T11:10:16.810Z,28.00
2023-05-05T11:13:10.646Z,28.00
2023-05-05T11:15:38.302Z,28.00
2023-05-05T11:18:08.273Z,27.30
2023-05-05T11:20:43.712Z,26.70
2023-05-05T11:23:11.066Z,26.70
2023-05-05T11:25:40.821Z,27.20
2023-05-05T11:28:12.811Z,27.60
2023-05-05T11:30:56.054Z,28.30
2023-05-05T11:33:39.586Z,29.30
2023-05-05T11:36:12.158Z,29.70
2023-05-05T11:38:39.449Z,29.80
2023-05-05T11:41:36.151Z,30.20
2023-05-05T11:44:15.206Z,29.40
2023-05-05T11:46:51.737Z,29.40
2023-05-05T11:49:45.703Z,28.90
2023-05-05T11:52:14.740Z,28.00
2023-05-05T11:54:51.488Z,26.80
2023-05-05T11:57:21.910Z,26.20
2023-05-05T12:00:00.392Z,25.60
2023-05-05T12:02:29.758Z,24.90
2023-05-05T12:04:58.791Z,24.50
2023-05-05T12:07:31.551Z,24.40
2023-05-05T12:09:59.444Z,24.10
2023-05-05T12:12:41.185Z,23.80
2023-05-05T12:15:09.570Z,23.80
2023-05-05T12:17:45.391Z,23.70
2023-05-05T12:20:13.149Z,23.70
2023-05-05T12:22:41.162Z,23.60
2023-05-05T12:25:09.378Z,23.80
2023-05-05T12:27:37.157Z,23.70
2023-05-05T12:30:16.772Z,23.80
2023-05-05T12:32:45.130Z,23.90
2023-05-05T12:35:13.750Z,24.10
2023-05-05T12:37:42.426Z,24.10
2023-05-05T12:40:45.985Z,24.20
2023-05-05T12:43:27.254Z,24.40
2023-05-05T12:46:07.853Z,24.70
2023-05-05T12:48:40.344Z,24.60
2023-05-05T12:51:17.566Z,24.90
2023-05-05T12:53:46.330Z,25.00
2023-05-05T12:56:38.524Z,25.10
2023-05-05T12:59:24.275Z,25.30
2023-05-05T13:01:53.166Z,25.20
2023-05-05T13:04:23.174Z,25.30
2023-05-05T13:07:08.201Z,25.50
2023-05-05T13:09:36.581Z,25.50
2023-05-05T13:12:04.773Z,25.60
2023-05-05T13:14:32.706Z,25.50
2023-05-05T13:17:00.671Z,25.40
2023-05-05T13:19:27.945Z,25.30
2023-05-05T13:21:56.664Z,25.70
2023-05-05T13:24:38.136Z,25.40
2023-05-05T13:27:12.734Z,25.30
2023-05-05T13:29:41.747Z,24.80
2023-05-05T13:32:09.151Z,24.30
2023-05-05T13:34:37.384Z,24.00
2023-05-05T13:37:04.628Z,23.90
2023-05-05T13:39:32.242Z,23.70
2023-05-05T13:41:59.953Z,23.40
2023-05-05T13:44:27.404Z,23.20
2023-05-05T13:46:54.894Z,23.10
2023-05-05T13:49:22.303Z,23.00
2023-05-05T13:51:49.708Z,22.80
2023-05-05T13:54:17.087Z,22.60
2023-05-05T13:56:44.720Z,22.50
2023-05-05T13:59:12.549Z,22.50
2023-05-05T14:01:39.772Z,22.40
2023-05-05T14:04:07.374Z,22.40
2023-05-05T14:06:35.879Z,22.40
2023-05-05T14:09:06.086Z,22.30
2023-05-05T14:11:33.983Z,22.10
2023-05-05T14:14:02.135Z,22.20
2023-05-05T14:16:29.599Z,22.20
2023-05-05T14:18:57.077Z,22.20
2023-05-05T14:21:24.749Z,22.10
2023-05-05T14:23:52.746Z,22.00
2023-05-05T14:26:20.021Z,21.90
2023-05-05T14:28:49.779Z,21.90
2023-05-05T14:31:18.052Z,21.90
2023-05-05T14:33:45.785Z,21.90
2023-05-05T14:36:14.416Z,21.80
2023-05-05T14:38:43.026Z,22.00
2023-05-05T14:41:10.946Z,22.10
2023-05-05T14:43:38.694Z,22.00
2023-05-05T14:46:07.462Z,21.90
2023-05-05T14:48:36.183Z,21.80
2023-05-05T14:51:04.514Z,21.70
2023-05-05T14:53:32.215Z,21.90
2023-05-05T14:56:00.504Z,22.30
2023-05-05T14:58:28.045Z,22.40
2023-05-05T15:00:55.578Z,22.60
2023-05-05T15:03:23.055Z,22.70
2023-05-05T15:05:50.584Z,22.90
2023-05-05T15:08:19.380Z,22.90
2023-05-05T15:10:47.317Z,22.80
2023-05-05T15:13:15.161Z,22.70
2023-05-05T15:15:42.923Z,23.00
2023-05-05T15:18:10.265Z,23.20
2023-05-05T15:20:37.974Z,23.40
2023-05-05T15:23:05.377Z,23.40
2023-05-05T15:25:32.926Z,23.70
2023-05-05T15:28:01.506Z,24.00
2023-05-05T15:30:29.367Z,24.00
2023-05-05T15:32:56.798Z,23.50
2023-05-05T15:35:25.869Z,23.10
2023-05-05T15:37:56.217Z,22.80
2023-05-05T15:40:23.597Z,22.70
2023-05-05T15:42:51.969Z,22.50
2023-05-05T15:45:19.284Z,22.40
2023-05-05T15:47:46.646Z,22.20
2023-05-05T15:50:14.556Z,22.00
2023-05-05T15:52:42.056Z,21.80
2023-05-05T15:55:10.551Z,21.70
2023-05-05T15:57:40.532Z,21.60
2023-05-05T16:00:09.564Z,21.50
2023-05-05T16:02:38.920Z,21.40
2023-05-05T16:05:06.927Z,21.40
2023-05-05T16:07:34.550Z,21.30
2023-05-05T16:10:02.930Z,21.20
2023-05-05T16:12:30.572Z,21.10
2023-05-05T16:14:57.873Z,21.00
2023-05-05T16:17:25.292Z,20.90
2023-05-05T16:19:52.840Z,20.80
2023-05-05T16:22:21.512Z,20.80
2023-05-05T16:24:49.810Z,20.80
2023-05-05T16:27:17.874Z,20.70
2023-05-05T16:29:45.252Z,20.70
2023-05-05T16:32:12.927Z,20.70
2023-05-05T16:34:40.422Z,20.70
2023-05-05T16:37:07.813Z,20.70
2023-05-05T16:39:40.353Z,20.70
2023-05-05T16:42:07.853Z,20.70
2023-05-05T16:44:35.137Z,20.70
2023-05-05T16:47:02.530Z,20.70
2023-05-05T16:49:29.798Z,20.60
2023-05-05T16:51:57.366Z,20.60
2023-05-05T16:54:24.633Z,20.50
2023-05-05T16:56:52.537Z,20.60
2023-05-05T16:59:19.912Z,20.60
2023-05-05T17:01:47.344Z,20.60
2023-05-05T17:04:18.767Z,20.60
2023-05-05T17:06:46.378Z,20.50
2023-05-05T17:09:13.766Z,20.50
2023-05-05T17:11:41.190Z,20.40
2023-05-05T17:14:08.526Z,20.30
2023-05-05T17:16:37.095Z,20.30
2023-05-05T17:19:05.415Z,20.30
2023-05-05T17:21:32.928Z,20.20
2023-05-05T17:24:02.087Z,20.10
2023-05-05T17:26:30.852Z,20.00
2023-05-05T17:28:58.322Z,20.00
2023-05-05T17:31:25.961Z,19.90
2023-05-05T17:33:53.246Z,19.90
2023-05-05T17:36:20.618Z,19.90
2023-05-05T17:38:48.002Z,19.90
2023-05-05T17:41:15.276Z,19.90
2023-05-05T17:43:42.757Z,19.90
2023-05-05T17:46:10.053Z,19.80
2023-05-05T17:48:37.733Z,19.70
2023-05-05T17:51:05.392Z,19.70
2023-05-05T17:53:32.762Z,19.60
2023-05-05T17:56:00.131Z,19.50
2023-05-05T17:58:28.224Z,19.50
2023-05-05T18:00:55.847Z,19.40
2023-05-05T18:03:23.273Z,19.40
2023-05-05T18:05:50.542Z,19.30
2023-05-05T18:08:18.659Z,19.20
2023-05-05T18:10:46.086Z,19.20
2023-05-05T18:13:13.420Z,19.10
2023-05-05T18:15:41.329Z,19.00
2023-05-05T18:18:09.065Z,18.90
2023-05-05T18:20:37.128Z,18.90
2023-05-05T18:23:04.381Z,18.80
2023-05-05T18:25:32.531Z,18.70
2023-05-05T18:27:59.787Z,18.70
2023-05-05T18:30:27.408Z,18.60
2023-05-05T18:32:55.015Z,18.60
2023-05-05T18:35:22.686Z,18.60
2023-05-05T18:37:50.165Z,18.50
2023-05-05T18:40:17.858Z,18.50
2023-05-05T18:42:45.347Z,18.40
2023-05-05T18:45:12.769Z,18.40
2023-05-05T18:47:40.299Z,18.40
2023-05-05T18:50:08.902Z,18.40
2023-05-05T18:52:37.195Z,18.40
2023-05-05T18:55:04.884Z,18.40
2023-05-05T18:57:32.390Z,18.30
2023-05-05T19:00:00.633Z,18.30
2023-05-05T19:02:28.927Z,18.30
2023-05-05T19:04:56.378Z,18.30
2023-05-05T19:07:34.361Z,18.30
2023-05-05T19:10:05.271Z,18.30
2023-05-05T19:12:32.609Z,18.30
2023-05-05T19:15:00.000Z,18.30
2023-05-05T19:17:27.998Z,18.30
2023-05-05T19:19:55.801Z,18.20
2023-05-05T19:22:23.974Z,18.20
2023-05-05T19:24:51.654Z,18.10
2023-05-05T19:27:21.698Z,18.10
2023-05-05T19:29:52.482Z,18.00
2023-05-05T19:32:21.519Z,17.70
2023-05-05T19:34:50.101Z,17.30
2023-05-05T19:37:17.493Z,16.80
2023-05-05T19:39:45.902Z,16.40
2023-05-05T19:42:13.359Z,16.20
2023-05-05T19:44:41.756Z,16.10
2023-05-05T19:47:11.004Z,16.00
2023-05-05T19:49:38.827Z,15.90
2023-05-05T19:52:06.246Z,15.80
2023-05-05T19:54:33.655Z,15.70
2023-05-05T19:57:01.519Z,15.70
2023-05-05T19:59:29.039Z,15.70
2023-05-05T20:01:56.815Z,15.50
2023-05-05T20:04:24.422Z,15.40
2023-05-05T20:06:51.965Z,15.30
2023-05-05T20:09:19.977Z,15.20
2023-05-05T20:11:47.352Z,15.20
2023-05-05T20:14:14.747Z,15.20
2023-05-05T20:16:42.645Z,15.10
2023-05-05T20:19:10.108Z,15.00
2023-05-05T20:21:37.782Z,15.00
2023-05-05T20:24:06.212Z,15.00
2023-05-05T20:26:33.694Z,14.90
2023-05-05T20:29:01.285Z,14.80
2023-05-05T20:31:28.804Z,14.80
2023-05-05T20:33:56.378Z,14.80
2023-05-05T20:36:26.539Z,14.80
2023-05-05T20:38:54.162Z,14.80
2023-05-05T20:41:22.568Z,14.80
2023-05-05T20:43:50.006Z,14.80
2023-05-05T20:46:17.360Z,14.70
2023-05-05T20:48:46.300Z,14.70
2023-05-05T20:51:13.624Z,14.70
2023-05-05T20:53:41.111Z,14.70
2023-05-05T20:56:09.214Z,14.70
2023-05-05T20:58:36.730Z,14.70
2023-05-05T21:01:03.995Z,14.70
2023-05-05T21:03:31.231Z,14.80
2023-05-05T21:05:58.644Z,14.70
2023-05-05T21:08:26.022Z,14.80
2023-05-05T21:10:53.278Z,14.70
2023-05-05T21:13:20.824Z,14.70
2023-05-05T21:15:50.547Z,14.70
2023-05-05T21:18:17.901Z,14.70
2023-05-05T21:20:45.681Z,14.70
2023-05-05T21:23:13.679Z,14.70
2023-05-05T21:25:42.809Z,14.70
2023-05-05T21:28:11.428Z,14.70
2023-05-05T21:30:40.656Z,14.80
2023-05-05T21:33:08.866Z,14.70
2023-05-05T21:35:36.545Z,14.70
2023-05-05T21:38:03.994Z,14.80
2023-05-05T21:40:31.260Z,14.80
2023-05-05T21:42:58.521Z,14.70
2023-05-05T21:45:25.868Z,14.70
2023-05-05T21:47:53.194Z,14.70
2023-05-05T21:50:20.686Z,14.70
2023-05-05T21:52:48.082Z,14.70
2023-05-05T21:55:15.717Z,14.70
2023-05-05T21:57:43.602Z,14.70
2023-05-05T22:00:16.958Z,14.70
2023-05-05T22:02:45.603Z,14.70
2023-05-05T22:05:13.441Z,14.70
2023-05-05T22:07:59.543Z,14.80
2023-05-05T22:10:27.734Z,14.80
2023-05-05T22:12:55.061Z,14.70
2023-05-05T22:15:25.406Z,14.70
2023-05-05T22:17:54.832Z,14.70
2023-05-05T22:20:22.249Z,14.70
2023-05-05T22:22:49.844Z,14.70
2023-05-05T22:25:17.200Z,14.70
2023-05-05T22:27:44.490Z,14.70
2023-05-05T22:30:12.553Z,14.70
2023-05-05T22:32:40.355Z,14.70
2023-05-05T22:35:09.373Z,14.70
2023-05-05T22:37:37.738Z,14.70
2023-05-05T22:40:05.523Z,14.70
2023-05-05T22:42:32.804Z,14.60
2023-05-05T22:45:00.073Z,14.60
2023-05-05T22:47:27.406Z,14.60
2023-05-05T22:49:54.713Z,14.60
2023-05-05T22:52:22.105Z,14.60
2023-05-05T22:54:49.345Z,14.50
2023-05-05T22:57:16.632Z,14.40
2023-05-05T22:59:44.232Z,14.40
2023-05-05T23:02:11.522Z,14.40
2023-05-05T23:04:39.360Z,14.40
2023-05-05T23:07:06.749Z,14.40
2023-05-05T23:09:34.081Z,14.50
2023-05-05T23:12:01.943Z,14.40
2023-05-05T23:14:29.306Z,14.50
2023-05-05T23:16:56.568Z,14.50
2023-05-05T23:19:24.393Z,14.50
2023-05-05T23:21:53.674Z,14.40
2023-05-05T23:24:22.165Z,14.40
2023-05-05T23:26:49.743Z,14.30
2023-05-05T23:29:16.965Z,14.30
2023-05-05T23:31:44.992Z,14.30
2023-05-05T23:34:13.256Z,14.30
2023-05-05T23:36:40.684Z,14.30
2023-05-05T23:39:07.953Z,14.30
2023-05-05T23:41:35.267Z,14.30
2023-05-05T23:44:02.685Z,14.30
2023-05-05T23:46:30.284Z,14.20
2023-05-05T23:48:57.722Z,14.20
2023-05-05T23:51:24.983Z,14.20
2023-05-05T23:53:52.352Z,14.20
2023-05-05T23:56:20.210Z,14.20
2023-05-05T23:58:47.816Z,14.20
